Celoron, New York
Current Conditions -  °F | °C
As of 7:15 PM on Thursday 27 Nov 2014 (Local Time) from KJHW Reporting Station
Overcast Overcast  
Wind Chill: 17°   Ceiling: 1600
Heat Index: 27°   Visibility: 5mi
Dew Point: 25°   Wind: 10mph
Humidity: 93%   Direction: 260°W
Pressure: 30.05"   Gusts: NA
Location:  42.11°N, 79.28°W
Report Text: KJHW 280015Z 26009KT 5SM SCT008 OVC016 M03/M04 A3005 RMK AO1
Loading
Personal Weather Stations






























Interactive Weather Map New forecast layout! Learn more

10-Day Weather Forecast

Advertisements
Track Severe Weather on mobile